| time (UTC) | temp F | wind direction | speed MPH | gust MPH | rain 1hr in | rain 24hr in | rain mn in | humidity % | barometer mb |
| 20260902042016 | 69 | 240 | 0.0 | 1.0 | 0.00 | 0.55 | 0.00 | 94 | 1039.4 |
| 20260902041515 | 69 | 240 | 0.0 | 1.0 | 0.00 | 0.55 | 0.00 | 94 | 1039.3 |
| 20260902041014 | 69 | 240 | 0.0 | 0.0 | 0.00 | 0.55 | 0.00 | 94 | 1039.1 |
| 20260902040514 | 69 | 240 | 0.0 | 1.0 | 0.00 | 0.55 | 0.00 | 94 | 1039.1 |
| 20260902040014 | 69 | 240 | 0.0 | 1.0 | 0.00 | 0.55 | 0.00 | 94 | 1039.1 |
| 20260902035512 | 69 | 240 | 0.0 | 2.0 | 0.00 | 0.55 | 0.55 | 94 | 1038.9 |
| 20260902035012 | 69 | 240 | 0.0 | 2.0 | 0.00 | 0.55 | 0.55 | 94 | 1038.7 |
| 20260902034514 | 69 | 243 | 0.0 | 2.0 | 0.00 | 0.55 | 0.55 | 94 | 1038.7 |
| 20260902034016 | 69 | 227 | 0.0 | 2.0 | 0.00 | 0.55 | 0.55 | 94 | 1038.7 |
| 20260902033511 | 69 | 227 | 0.0 | 4.0 | 0.00 | 0.55 | 0.55 | 94 | 1039.0 |
| 20260902033024 | 69 | 224 | 1.0 | 4.0 | 0.00 | 0.55 | 0.55 | 94 | 1039.2 |
| 20260902032511 | 69 | 194 | 0.0 | 5.0 | 0.00 | 0.55 | 0.55 | 94 | 1039.6 |
| 20260902032011 | 69 | 94 | 0.0 | 5.0 | 0.00 | 0.55 | 0.55 | 94 | 1039.6 |
| 20260902031511 | 69 | 129 | 0.0 | 2.0 | 0.00 | 0.55 | 0.55 | 94 | 1039.5 |
| 20260902031010 | 69 | 176 | 0.0 | 2.0 | 0.00 | 0.55 | 0.55 | 94 | 1039.0 |
| 20260902030509 | 69 | 176 | 0.0 | 0.0 | 0.00 | 0.55 | 0.55 | 94 | 1038.6 |
| 20260902030009 | 69 | 176 | 0.0 | 1.0 | 0.00 | 0.55 | 0.55 | 94 | 1038.5 |
| 20260902025512 | 69 | 176 | 0.0 | 1.0 | 0.00 | 0.56 | 0.55 | 94 | 1038.6 |
| 20260902025010 | 69 | 176 | 0.0 | 0.0 | 0.00 | 0.56 | 0.55 | 94 | 1038.8 |
| 20260902024509 | 69 | 176 | 0.0 | 0.0 | 0.00 | 0.56 | 0.55 | 94 | 1038.7 |
| 20260902024008 | 69 | 176 | 0.0 | 0.0 | 0.00 | 0.56 | 0.55 | 94 | 1038.7 |
| 20260902023509 | 69 | 176 | 0.0 | 1.0 | 0.00 | 0.56 | 0.55 | 94 | 1038.3 |
| 20260902023009 | 69 | 176 | 0.0 | 1.0 | 0.00 | 0.56 | 0.55 | 94 | 1038.4 |
| 20260902022512 | 69 | 176 | 0.0 | 0.0 | 0.00 | 0.56 | 0.55 | 94 | 1038.4 |
| 20260902022008 | 69 | 176 | 0.0 | 0.0 | 0.00 | 0.56 | 0.55 | 94 | 1037.9 |
| 20260902021522 | 69 | 176 | 0.0 | 0.0 | 0.00 | 0.56 | 0.55 | 94 | 1038.0 |
| 20260902021008 | 69 | 176 | 0.0 | 0.0 | 0.00 | 0.56 | 0.55 | 94 | 1038.2 |
| 20260902020507 | 69 | 176 | 0.0 | 0.0 | 0.00 | 0.56 | 0.55 | 94 | 1038.3 |
| 20260902020011 | 70 | 176 | 0.0 | 0.0 | 0.00 | 0.56 | 0.55 | 94 | 1038.2 |
| 20260902015507 | 70 | 176 | 0.0 | 1.0 | 0.00 | 0.56 | 0.55 | 94 | 1038.2 |
| 20260902015008 | 70 | 176 | 0.0 | 1.0 | 0.00 | 0.56 | 0.55 | 94 | 1037.9 |
| 20260902014508 | 70 | 176 | 0.0 | 2.0 | 0.00 | 0.56 | 0.55 | 94 | 1037.8 |
| 20260902014006 | 70 | 174 | 0.0 | 2.0 | 0.02 | 0.56 | 0.55 | 94 | 1037.8 |
| 20260902013507 | 69 | 167 | 0.0 | 0.0 | 0.02 | 0.56 | 0.55 | 93 | 1037.8 |
| 20260902013007 | 70 | 167 | 0.0 | 0.0 | 0.02 | 0.56 | 0.55 | 93 | 1038.0 |
| 20260902012507 | 70 | 167 | 0.0 | 0.0 | 0.02 | 0.56 | 0.55 | 93 | 1038.0 |
| 20260902012009 | 70 | 167 | 0.0 | 0.0 | 0.02 | 0.56 | 0.55 | 93 | 1037.8 |
| 20260902011506 | 70 | 167 | 0.0 | 0.0 | 0.02 | 0.56 | 0.55 | 93 | 1037.8 |
| 20260902011006 | 70 | 167 | 0.0 | 0.0 | 0.02 | 0.56 | 0.55 | 93 | 1037.6 |
| 20260902010506 | 70 | 167 | 0.0 | 2.0 | 0.02 | 0.56 | 0.55 | 93 | 1037.6 |
| 20260902010109 | 70 | 167 | 0.0 | 3.0 | 0.02 | 0.56 | 0.55 | 93 | 1037.7 |
| 20260902005508 | 70 | 212 | 1.0 | 3.0 | 0.02 | 0.56 | 0.55 | 93 | 1038.0 |
| 20260902005005 | 70 | 224 | 0.0 | 4.0 | 0.02 | 0.56 | 0.55 | 93 | 1037.7 |
| 20260902004515 | 70 | 71 | 1.0 | 4.0 | 0.02 | 0.56 | 0.55 | 93 | 1037.9 |
| 20260902004004 | 70 | 174 | 0.0 | 3.0 | 0.01 | 0.54 | 0.53 | 93 | 1037.9 |
| 20260902003504 | 70 | 185 | 0.0 | 3.0 | 0.01 | 0.54 | 0.53 | 93 | 1038.3 |
| 20260902003005 | 70 | 239 | 0.0 | 2.0 | 0.01 | 0.54 | 0.53 | 93 | 1038.2 |
| 20260902002504 | 70 | 238 | 0.0 | 3.0 | 0.02 | 0.54 | 0.53 | 93 | 1038.4 |
| 20260902002004 | 70 | 233 | 0.0 | 3.0 | 0.02 | 0.54 | 0.53 | 93 | 1038.7 |
| 20260902001503 | 70 | 25 | 1.0 | 3.0 | 0.02 | 0.54 | 0.53 | 93 | 1038.3 |
| 20260902001004 | 70 | 203 | 0.0 | 0.0 | 0.02 | 0.54 | 0.53 | 93 | 1037.6 |
| 20260902000503 | 70 | 203 | 0.0 | 0.0 | 0.02 | 0.54 | 0.53 | 93 | 1037.3 |
| 20260902000007 | 70 | 203 | 0.0 | 0.0 | 0.02 | 0.54 | 0.53 | 93 | 1036.6 |
| 20260901235504 | 70 | 203 | 0.0 | 0.0 | 0.02 | 0.54 | 0.53 | 92 | 1036.3 |
| 20260901235003 | 70 | 203 | 0.0 | 0.0 | 0.02 | 0.54 | 0.53 | 92 | 1036.5 |
| 20260901234503 | 70 | 203 | 0.0 | 0.0 | 0.04 | 0.54 | 0.53 | 92 | 1036.6 |
| 20260901234003 | 70 | 203 | 0.0 | 1.0 | 0.05 | 0.53 | 0.52 | 92 | 1036.2 |
| 20260901233502 | 70 | 203 | 0.0 | 1.0 | 0.09 | 0.53 | 0.52 | 92 | 1036.2 |
| 20260901233002 | 70 | 204 | 0.0 | 1.0 | 0.10 | 0.53 | 0.52 | 92 | 1036.2 |
| 20260901232503 | 70 | 195 | 0.0 | 1.0 | 0.15 | 0.52 | 0.51 | 92 | 1036.1 |
| 20260901232004 | 70 | 198 | 0.0 | 0.0 | 0.21 | 0.52 | 0.51 | 92 | 1036.2 |
| 20260901231502 | 70 | 198 | 0.0 | 1.0 | 0.27 | 0.52 | 0.51 | 92 | 1036.1 |
| 20260901231001 | 70 | 198 | 0.0 | 2.0 | 0.34 | 0.52 | 0.51 | 91 | 1036.1 |
| 20260901230502 | 71 | 185 | 0.0 | 5.0 | 0.36 | 0.52 | 0.51 | 91 | 1036.3 |
| 20260901230002 | 71 | 183 | 0.0 | 5.0 | 0.39 | 0.52 | 0.51 | 90 | 1036.7 |
| 20260901225501 | 71 | 215 | 1.0 | 4.0 | 0.42 | 0.52 | 0.51 | 90 | 1036.1 |
| 20260901225001 | 71 | 335 | 0.0 | 5.0 | 0.47 | 0.52 | 0.51 | 90 | 1036.5 |
| 20260901224503 | 71 | 354 | 1.0 | 6.0 | 0.47 | 0.50 | 0.49 | 89 | 1036.8 |
| 20260901224101 | 71 | 185 | 0.0 | 6.0 | 0.46 | 0.48 | 0.47 | 88 | 1036.4 |
| 20260901223601 | 72 | 75 | 2.0 | 5.0 | 0.42 | 0.44 | 0.43 | 88 | 1036.1 |
| 20260901223100 | 72 | 327 | 0.0 | 5.0 | 0.41 | 0.43 | 0.42 | 87 | 1035.8 |
| 20260901222559 | 73 | 84 | 1.0 | 6.0 | 0.35 | 0.37 | 0.36 | 86 | 1036.2 |
| 20260901222101 | 75 | 350 | 2.0 | 6.0 | 0.28 | 0.31 | 0.30 | 84 | 1036.3 |
| 20260901221600 | 76 | 319 | 0.0 | 6.0 | 0.23 | 0.25 | 0.24 | 85 | 1036.4 |
| 20260901221059 | 77 | 37 | 2.0 | 7.0 | 0.16 | 0.18 | 0.17 | 83 | 1036.5 |
| 20260901220559 | 79 | 107 | 1.0 | 9.0 | 0.14 | 0.16 | 0.15 | 86 | 1036.5 |
| 20260901215158 | 84 | 351 | 2.0 | 6.0 | 0.04 | 0.06 | 0.05 | 83 | 1036.3 |
| 20260901214555 | 86 | 332 | 0.0 | 2.0 | 0.01 | 0.03 | 0.02 | 80 | 1035.6 |
| 20260901214056 | 88 | 332 | 0.0 | 2.0 | 0.00 | 0.02 | 0.01 | 79 | 1035.4 |
| 20260901213554 | 89 | 331 | 0.0 | 2.0 | 0.00 | 0.02 | 0.01 | 75 | 1035.0 |
| 20260901213054 | 89 | 331 | 0.0 | 2.0 | 0.00 | 0.02 | 0.01 | 72 | 1035.1 |
| 20260901212554 | 90 | 158 | 1.0 | 2.0 | 0.00 | 0.02 | 0.01 | 71 | 1035.2 |
| 20260901212055 | 90 | 174 | 0.0 | 3.0 | 0.00 | 0.02 | 0.01 | 74 | 1034.7 |
| 20260901211552 | 90 | 177 | 0.0 | 3.0 | 0.00 | 0.02 | 0.01 | 73 | 1035.2 |
| 20260901211051 | 90 | 349 | 0.0 | 6.0 | 0.00 | 0.02 | 0.01 | 72 | 1035.2 |
| 20260901210549 | 89 | 347 | 2.0 | 6.0 | 0.00 | 0.02 | 0.01 | 71 | 1035.4 |
| 20260901210048 | 89 | 203 | 0.0 | 1.0 | 0.00 | 0.02 | 0.01 | 74 | 1035.2 |
| 20260901205549 | 89 | 203 | 0.0 | 1.0 | 0.00 | 0.02 | 0.01 | 73 | 1035.4 |
| 20260901205049 | 88 | 100 | 0.0 | 1.0 | 0.00 | 0.02 | 0.01 | 74 | 1035.4 |
| 20260901204548 | 88 | 100 | 0.0 | 2.0 | 0.00 | 0.02 | 0.01 | 74 | 1035.3 |
| 20260901204050 | 88 | 100 | 0.0 | 3.0 | 0.00 | 0.02 | 0.01 | 76 | 1035.2 |
| 20260901203547 | 88 | 115 | 0.0 | 3.0 | 0.00 | 0.02 | 0.01 | 75 | 1035.1 |
| 20260901203049 | 88 | 98 | 0.0 | 3.0 | 0.00 | 0.02 | 0.01 | 74 | 1035.2 |
| 20260901202546 | 88 | 129 | 0.0 | 2.0 | 0.00 | 0.02 | 0.01 | 74 | 1035.3 |
| 20260901202050 | 88 | 129 | 0.0 | 2.0 | 0.00 | 0.02 | 0.01 | 75 | 1035.4 |
| 20260901201545 | 88 | 166 | 0.0 | 3.0 | 0.00 | 0.02 | 0.01 | 76 | 1035.5 |
| 20260901201044 | 88 | 110 | 0.0 | 4.0 | 0.00 | 0.02 | 0.01 | 74 | 1035.5 |
| 20260901200543 | 88 | 226 | 0.0 | 4.0 | 0.00 | 0.02 | 0.01 | 74 | 1035.6 |
| 20260901200101 | 88 | 48 | 0.0 | 5.0 | 0.00 | 0.02 | 0.01 | 76 | 1035.7 |
| 20260901195543 | 89 | 43 | 2.0 | 5.0 | 0.00 | 0.02 | 0.01 | 74 | 1035.8 |
| 20260901195045 | 89 | 338 | 0.0 | 5.0 | 0.00 | 0.02 | 0.01 | 74 | 1035.8 |
| 20260901194552 | 88 | 51 | 0.0 | 3.0 | 0.00 | 0.02 | 0.01 | 74 | 1035.9 |
| 20260901194042 | 88 | 208 | 0.0 | 4.0 | 0.00 | 0.02 | 0.01 | 74 | 1035.9 |
| 20260901193543 | 88 | 56 | 1.0 | 4.0 | 0.00 | 0.02 | 0.01 | 74 | 1036.0 |
| 20260901193040 | 89 | 60 | 0.0 | 3.0 | 0.00 | 0.02 | 0.01 | 75 | 1036.0 |
| 20260901192538 | 89 | 41 | 0.0 | 3.0 | 0.00 | 0.02 | 0.01 | 79 | 1036.2 |
| 20260901192038 | 88 | 215 | 0.0 | 4.0 | 0.00 | 0.02 | 0.01 | 77 | 1036.1 |
| 20260901191542 | 87 | 158 | 0.0 | 4.0 | 0.00 | 0.02 | 0.01 | 77 | 1036.2 |
| 20260901191036 | 88 | 216 | 0.0 | 3.0 | 0.00 | 0.02 | 0.01 | 74 | 1036.2 |
| 20260901190536 | 88 | 162 | 0.0 | 4.0 | 0.00 | 0.02 | 0.01 | 76 | 1036.3 |
| 20260901190048 | 88 | 224 | 1.0 | 4.0 | 0.00 | 0.02 | 0.01 | 73 | 1036.2 |
| 20260901185535 | 88 | 346 | 0.0 | 4.0 | 0.00 | 0.03 | 0.01 | 74 | 1036.3 |
| 20260901185033 | 87 | 254 | 0.0 | 4.0 | 0.00 | 0.03 | 0.01 | 76 | 1036.4 |
| 20260901184535 | 87 | 212 | 0.0 | 3.0 | 0.00 | 0.03 | 0.01 | 78 | 1036.4 |
| 20260901184030 | 86 | 63 | 0.0 | 3.0 | 0.00 | 0.03 | 0.01 | 77 | 1036.6 |
| 20260901183530 | 86 | 51 | 0.0 | 2.0 | 0.00 | 0.03 | 0.01 | 77 | 1036.7 |
| 20260901183033 | 85 | 51 | 0.0 | 3.0 | 0.00 | 0.03 | 0.01 | 78 | 1036.8 |
| 20260901182529 | 85 | 44 | 1.0 | 3.0 | 0.00 | 0.03 | 0.01 | 79 | 1036.9 |
| 20260901182029 | 85 | 54 | 0.0 | 4.0 | 0.00 | 0.03 | 0.01 | 78 | 1036.9 |
| 20260901181531 | 85 | 340 | 0.0 | 4.0 | 0.00 | 0.03 | 0.01 | 79 | 1036.9 |
| 20260901181029 | 85 | 8 | 0.0 | 4.0 | 0.00 | 0.03 | 0.01 | 77 | 1036.9 |
| 20260901180531 | 85 | 352 | 0.0 | 1.0 | 0.00 | 0.03 | 0.01 | 79 | 1036.9 |
| 20260901180029 | 85 | 352 | 0.0 | 3.0 | 0.00 | 0.03 | 0.01 | 79 | 1036.8 |
| 20260901175533 | 84 | 352 | 0.0 | 3.0 | 0.00 | 0.07 | 0.01 | 78 | 1036.8 |
| 20260901175029 | 84 | 251 | 0.0 | 2.0 | 0.00 | 0.07 | 0.01 | 79 | 1036.7 |
| 20260901174537 | 83 | 253 | 0.0 | 2.0 | 0.00 | 0.07 | 0.01 | 78 | 1036.8 |
| 20260901174031 | 83 | 253 | 0.0 | 1.0 | 0.00 | 0.07 | 0.01 | 78 | 1036.7 |
| 20260901173528 | 83 | 253 | 0.0 | 1.0 | 0.00 | 0.07 | 0.01 | 79 | 1036.7 |
| 20260901173031 | 83 | 253 | 0.0 | 2.0 | 0.00 | 0.07 | 0.01 | 80 | 1036.8 |
| 20260901172527 | 84 | 253 | 0.0 | 2.0 | 0.00 | 0.07 | 0.01 | 78 | 1036.9 |
| 20260901172027 | 84 | 248 | 0.0 | 2.0 | 0.00 | 0.07 | 0.01 | 77 | 1036.8 |
| 20260901171527 | 85 | 344 | 0.0 | 3.0 | 0.00 | 0.07 | 0.01 | 77 | 1036.8 |
| 20260901171026 | 85 | 346 | 1.0 | 4.0 | 0.00 | 0.07 | 0.01 | 77 | 1036.7 |
| 20260901170526 | 85 | 323 | 1.0 | 4.0 | 0.00 | 0.07 | 0.01 | 75 | 1036.7 |
| 20260901170026 | 86 | 99 | 1.0 | 4.0 | 0.00 | 0.07 | 0.01 | 75 | 1036.7 |
| 20260901165525 | 86 | 73 | 1.0 | 5.0 | 0.00 | 0.07 | 0.01 | 74 | 1036.8 |
| 20260901165027 | 86 | 72 | 2.0 | 5.0 | 0.00 | 0.07 | 0.01 | 75 | 1036.9 |
| 20260901164524 | 86 | 105 | 1.0 | 5.0 | 0.00 | 0.07 | 0.01 | 75 | 1036.9 |
| 20260901164023 | 86 | 206 | 1.0 | 7.0 | 0.00 | 0.07 | 0.01 | 78 | 1036.9 |
| 20260901163522 | 85 | 49 | 0.0 | 13.0 | 0.00 | 0.07 | 0.01 | 79 | 1037.0 |
| 20260901163022 | 85 | 341 | 4.0 | 13.0 | 0.00 | 0.07 | 0.01 | 76 | 1036.9 |
| 20260901162521 | 86 | 44 | 1.0 | 7.0 | 0.00 | 0.07 | 0.01 | 76 | 1037.0 |
| 20260901162019 | 85 | 54 | 2.0 | 7.0 | 0.00 | 0.07 | 0.01 | 80 | 1037.1 |
| 20260901161519 | 85 | 55 | 0.0 | 6.0 | 0.00 | 0.07 | 0.01 | 80 | 1037.3 |
| 20260901161018 | 84 | 91 | 1.0 | 6.0 | 0.00 | 0.07 | 0.01 | 78 | 1037.3 |
| 20260901160517 | 84 | 63 | 1.0 | 5.0 | 0.00 | 0.07 | 0.01 | 79 | 1037.3 |
| 20260901160016 | 83 | 338 | 1.0 | 6.0 | 0.00 | 0.07 | 0.01 | 79 | 1037.4 |
| 20260901155515 | 83 | 30 | 2.0 | 6.0 | 0.00 | 0.07 | 0.01 | 80 | 1037.5 |
| 20260901155014 | 83 | 2 | 0.0 | 5.0 | 0.00 | 0.07 | 0.01 | 83 | 1037.5 |
| 20260901154511 | 82 | 49 | 1.0 | 5.0 | 0.00 | 0.07 | 0.01 | 82 | 1037.5 |
| 20260901154011 | 81 | 136 | 0.0 | 5.0 | 0.00 | 0.07 | 0.01 | 83 | 1037.5 |
| 20260901153511 | 80 | 224 | 0.0 | 7.0 | 0.00 | 0.07 | 0.01 | 86 | 1037.7 |
| 20260901153007 | 79 | 63 | 1.0 | 8.0 | 0.00 | 0.07 | 0.01 | 85 | 1037.7 |
| 20260901152506 | 79 | 72 | 1.0 | 8.0 | 0.00 | 0.07 | 0.01 | 86 | 1037.7 |
| 20260901152005 | 78 | 133 | 0.0 | 3.0 | 0.00 | 0.07 | 0.01 | 86 | 1037.7 |
| 20260901151505 | 78 | 349 | 0.0 | 6.0 | 0.00 | 0.07 | 0.01 | 87 | 1037.8 |
| 20260901151004 | 78 | 103 | 0.0 | 6.0 | 0.00 | 0.07 | 0.01 | 87 | 1037.7 |
| 20260901150504 | 78 | 63 | 1.0 | 4.0 | 0.00 | 0.07 | 0.01 | 87 | 1037.8 |
| 20260901150002 | 77 | 333 | 0.0 | 4.0 | 0.00 | 0.07 | 0.01 | 88 | 1037.9 |
| 20260901145501 | 77 | 33 | 0.0 | 3.0 | 0.00 | 0.07 | 0.01 | 88 | 1037.9 |
| 20260901145101 | 76 | 31 | 1.0 | 4.0 | 0.00 | 0.07 | 0.01 | 88 | 1037.9 |
| 20260901144602 | 76 | 74 | 0.0 | 4.0 | 0.00 | 0.07 | 0.01 | 88 | 1037.8 |
| 20260901144059 | 76 | 35 | 0.0 | 3.0 | 0.00 | 0.07 | 0.01 | 88 | 1037.8 |
| 20260901143600 | 76 | 76 | 1.0 | 3.0 | 0.00 | 0.07 | 0.01 | 88 | 1037.8 |
| 20260901143111 | 76 | 185 | 0.0 | 2.0 | 0.00 | 0.07 | 0.01 | 88 | 1037.8 |
| 20260901142559 | 76 | 207 | 0.0 | 2.0 | 0.00 | 0.07 | 0.01 | 89 | 1037.8 |
| 20260901142058 | 76 | 25 | 0.0 | 2.0 | 0.00 | 0.07 | 0.01 | 89 | 1037.9 |
| 20260901141557 | 76 | 98 | 0.0 | 3.0 | 0.00 | 0.07 | 0.01 | 90 | 1038.0 |
| 20260901141056 | 76 | 91 | 0.0 | 3.0 | 0.00 | 0.07 | 0.01 | 89 | 1037.9 |
| 20260901140556 | 75 | 122 | 0.0 | 1.0 | 0.00 | 0.07 | 0.01 | 90 | 1037.9 |
| 20260901140104 | 75 | 56 | 0.0 | 1.0 | 0.00 | 0.07 | 0.01 | 90 | 1038.1 |
| 20260901135555 | 75 | 71 | 0.0 | 2.0 | 0.00 | 0.07 | 0.01 | 90 | 1038.1 |
| 20260901135052 | 74 | 71 | 0.0 | 2.0 | 0.00 | 0.07 | 0.01 | 90 | 1038.1 |
| 20260901134551 | 74 | 70 | 0.0 | 2.0 | 0.00 | 0.07 | 0.01 | 90 | 1038.1 |
| 20260901134052 | 74 | 70 | 0.0 | 3.0 | 0.00 | 0.07 | 0.01 | 91 | 1038.2 |
| 20260901133547 | 74 | 356 | 0.0 | 6.0 | 0.01 | 0.07 | 0.01 | 91 | 1038.2 |
| 20260901133046 | 74 | 53 | 1.0 | 6.0 | 0.01 | 0.07 | 0.01 | 91 | 1038.3 |
| 20260901132545 | 74 | 120 | 0.0 | 1.0 | 0.01 | 0.07 | 0.01 | 92 | 1038.3 |
| 20260901132043 | 73 | 148 | 0.0 | 2.0 | 0.01 | 0.07 | 0.01 | 93 | 1038.2 |
| 20260901131542 | 73 | 158 | 0.0 | 2.0 | 0.01 | 0.07 | 0.01 | 93 | 1038.3 |
| 20260901131040 | 73 | 181 | 0.0 | 2.0 | 0.01 | 0.07 | 0.01 | 93 | 1038.3 |
| 20260901130543 | 72 | 216 | 0.0 | 4.0 | 0.01 | 0.07 | 0.01 | 93 | 1038.4 |
| 20260901130036 | 72 | 37 | 0.0 | 4.0 | 0.01 | 0.07 | 0.01 | 94 | 1038.3 |
| 20260901125536 | 72 | 24 | 0.0 | 3.0 | 0.01 | 0.07 | 0.01 | 94 | 1038.3 |
| 20260901125035 | 72 | 83 | 0.0 | 1.0 | 0.01 | 0.07 | 0.01 | 95 | 1038.6 |
| 20260901124534 | 71 | 83 | 0.0 | 1.0 | 0.01 | 0.07 | 0.01 | 95 | 1038.5 |
| 20260901124031 | 71 | 40 | 0.0 | 3.0 | 0.01 | 0.07 | 0.01 | 95 | 1038.5 |
| 20260901123530 | 71 | 40 | 1.0 | 3.0 | 0.00 | 0.06 | 0.00 | 95 | 1038.6 |
| 20260901123034 | 70 | 49 | 0.0 | 1.0 | 0.00 | 0.06 | 0.00 | 95 | 1038.5 |
| 20260901122529 | 70 | 49 | 0.0 | 2.0 | 0.00 | 0.06 | 0.00 | 95 | 1038.4 |
| 20260901122026 | 70 | 65 | 0.0 | 2.0 | 0.00 | 0.06 | 0.00 | 95 | 1038.3 |
| 20260901121529 | 70 | 184 | 0.0 | 1.0 | 0.00 | 0.06 | 0.00 | 96 | 1038.4 |
| 20260901121026 | 70 | 183 | 0.0 | 0.0 | 0.00 | 0.06 | 0.00 | 96 | 1038.6 |
| 20260901120522 | 70 | 183 | 0.0 | 0.0 | 0.00 | 0.06 | 0.00 | 95 | 1038.6 |
| 20260901120021 | 69 | 183 | 0.0 | 0.0 | 0.00 | 0.06 | 0.00 | 95 | 1038.6 |
| 20260901115525 | 69 | 183 | 0.0 | 0.0 | 0.00 | 0.06 | 0.00 | 95 | 1038.5 |
| 20260901115021 | 68 | 183 | 0.0 | 0.0 | 0.00 | 0.06 | 0.00 | 95 | 1038.5 |
| 20260901114520 | 68 | 184 | 0.0 | 0.0 | 0.00 | 0.06 | 0.00 | 95 | 1038.5 |
| 20260901114023 | 68 | 184 | 0.0 | 0.0 | 0.00 | 0.06 | 0.00 | 95 | 1038.6 |
| 20260901113522 | 68 | 183 | 0.0 | 0.0 | 0.00 | 0.06 | 0.00 | 95 | 1038.7 |
| 20260901113022 | 68 | 183 | 0.0 | 0.0 | 0.00 | 0.06 | 0.00 | 95 | 1038.6 |
| 20260901112520 | 68 | 183 | 0.0 | 0.0 | 0.00 | 0.06 | 0.00 | 95 | 1038.6 |
| 20260901112020 | 68 | 183 | 0.0 | 0.0 | 0.00 | 0.06 | 0.00 | 95 | 1038.8 |
| 20260901111520 | 68 | 183 | 0.0 | 0.0 | 0.00 | 0.06 | 0.00 | 95 | 1038.8 |
| 20260901111023 | 68 | 183 | 0.0 | 0.0 | 0.00 | 0.06 | 0.00 | 95 | 1038.7 |
| 20260901110523 | 68 | 183 | 0.0 | 0.0 | 0.00 | 0.06 | 0.00 | 95 | 1038.7 |
| 20260901110029 | 68 | 183 | 0.0 | 0.0 | 0.00 | 0.06 | 0.00 | 95 | 1038.6 |
| 20260901105520 | 68 | 183 | 0.0 | 0.0 | 0.00 | 0.06 | 0.00 | 95 | 1038.5 |
| 20260901105019 | 68 | 183 | 0.0 | 0.0 | 0.00 | 0.06 | 0.00 | 95 | 1038.6 |
| 20260901104522 | 68 | 183 | 0.0 | 0.0 | 0.00 | 0.06 | 0.00 | 95 | 1038.5 |
| 20260901104019 | 68 | 183 | 0.0 | 3.0 | 0.00 | 0.06 | 0.00 | 95 | 1038.5 |
| 20260901103520 | 68 | 183 | 0.0 | 3.0 | 0.00 | 0.06 | 0.00 | 95 | 1038.5 |
| 20260901103025 | 68 | 183 | 0.0 | 1.0 | 0.00 | 0.06 | 0.00 | 95 | 1038.3 |
| 20260901102520 | 68 | 186 | 0.0 | 0.0 | 0.00 | 0.06 | 0.00 | 95 | 1038.3 |
| 20260901102018 | 68 | 186 | 0.0 | 0.0 | 0.00 | 0.06 | 0.00 | 95 | 1038.4 |
| 20260901101525 | 68 | 186 | 0.0 | 0.0 | 0.00 | 0.06 | 0.00 | 95 | 1038.4 |
| 20260901101021 | 68 | 186 | 0.0 | 0.0 | 0.00 | 0.06 | 0.00 | 95 | 1038.5 |
| 20260901100517 | 68 | 186 | 0.0 | 0.0 | 0.00 | 0.06 | 0.00 | 95 | 1038.5 |
| 20260901100016 | 68 | 186 | 0.0 | 0.0 | 0.00 | 0.06 | 0.00 | 95 | 1038.4 |
| 20260901095515 | 68 | 186 | 0.0 | 0.0 | 0.00 | 0.06 | 0.00 | 95 | 1038.5 |
| 20260901095016 | 68 | 186 | 0.0 | 0.0 | 0.00 | 0.06 | 0.00 | 95 | 1038.6 |
| 20260901094516 | 68 | 186 | 0.0 | 0.0 | 0.00 | 0.06 | 0.00 | 95 | 1038.5 |
| 20260901094014 | 68 | 186 | 0.0 | 0.0 | 0.00 | 0.06 | 0.00 | 95 | 1038.7 |
| 20260901093514 | 68 | 186 | 0.0 | 0.0 | 0.00 | 0.06 | 0.00 | 95 | 1038.6 |
| 20260901093015 | 67 | 186 | 0.0 | 0.0 | 0.00 | 0.06 | 0.00 | 95 | 1038.8 |
| 20260901092514 | 67 | 186 | 0.0 | 1.0 | 0.00 | 0.06 | 0.00 | 95 | 1038.7 |
| 20260901092017 | 67 | 186 | 0.0 | 1.0 | 0.00 | 0.06 | 0.00 | 95 | 1038.8 |
| 20260901091515 | 67 | 186 | 0.0 | 0.0 | 0.00 | 0.06 | 0.00 | 95 | 1038.7 |
| 20260901091014 | 67 | 186 | 0.0 | 0.0 | 0.00 | 0.06 | 0.00 | 95 | 1038.5 |
| 20260901090517 | 67 | 186 | 0.0 | 0.0 | 0.00 | 0.06 | 0.00 | 95 | 1038.5 |
| 20260901090016 | 67 | 186 | 0.0 | 0.0 | 0.00 | 0.06 | 0.00 | 95 | 1038.6 |
| 20260901085512 | 67 | 186 | 0.0 | 0.0 | 0.00 | 0.06 | 0.00 | 95 | 1038.7 |
| 20260901085012 | 67 | 186 | 0.0 | 0.0 | 0.00 | 0.06 | 0.00 | 95 | 1038.7 |
| 20260901084513 | 67 | 186 | 0.0 | 0.0 | 0.00 | 0.06 | 0.00 | 95 | 1038.8 |
| 20260901084012 | 67 | 186 | 0.0 | 0.0 | 0.00 | 0.06 | 0.00 | 95 | 1038.9 |
| 20260901083513 | 67 | 186 | 0.0 | 0.0 | 0.00 | 0.06 | 0.00 | 94 | 1038.8 |
| 20260901083014 | 67 | 186 | 0.0 | 0.0 | 0.00 | 0.06 | 0.00 | 95 | 1038.8 |
| 20260901082512 | 67 | 186 | 0.0 | 0.0 | 0.00 | 0.06 | 0.00 | 95 | 1038.9 |
| 20260901082011 | 67 | 186 | 0.0 | 0.0 | 0.00 | 0.06 | 0.00 | 94 | 1038.7 |
| 20260901081514 | 67 | 186 | 0.0 | 0.0 | 0.00 | 0.06 | 0.00 | 95 | 1038.7 |
| 20260901081011 | 67 | 186 | 0.0 | 0.0 | 0.00 | 0.06 | 0.00 | 94 | 1038.7 |
| 20260901080510 | 67 | 186 | 0.0 | 0.0 | 0.00 | 0.06 | 0.00 | 94 | 1038.8 |
| 20260901080009 | 67 | 186 | 0.0 | 0.0 | 0.00 | 0.06 | 0.00 | 94 | 1039.0 |
| 20260901075509 | 67 | 186 | 0.0 | 0.0 | 0.00 | 0.06 | 0.00 | 94 | 1039.3 |
| 20260901075009 | 67 | 186 | 0.0 | 0.0 | 0.00 | 0.06 | 0.00 | 94 | 1039.3 |
| 20260901074509 | 67 | 186 | 0.0 | 0.0 | 0.00 | 0.06 | 0.00 | 94 | 1039.4 |
| 20260901074009 | 68 | 186 | 0.0 | 0.0 | 0.00 | 0.06 | 0.00 | 95 | 1039.4 |
| 20260901073509 | 68 | 182 | 0.0 | 0.0 | 0.00 | 0.06 | 0.00 | 94 | 1039.5 |
| 20260901073007 | 68 | 182 | 0.0 | 0.0 | 0.00 | 0.06 | 0.00 | 94 | 1039.4 |
| 20260901072507 | 68 | 182 | 0.0 | 0.0 | 0.00 | 0.06 | 0.00 | 95 | 1039.2 |
| 20260901072010 | 68 | 182 | 0.0 | 0.0 | 0.00 | 0.06 | 0.00 | 94 | 1039.1 |
| 20260901071513 | 68 | 182 | 0.0 | 0.0 | 0.00 | 0.06 | 0.00 | 94 | 1039.1 |
| 20260901071007 | 68 | 182 | 0.0 | 0.0 | 0.00 | 0.06 | 0.00 | 94 | 1039.1 |
| 20260901070506 | 68 | 182 | 0.0 | 0.0 | 0.00 | 0.06 | 0.00 | 94 | 1039.3 |
| 20260901070006 | 68 | 182 | 0.0 | 0.0 | 0.00 | 0.06 | 0.00 | 94 | 1039.3 |
| 20260901065507 | 68 | 182 | 0.0 | 0.0 | 0.00 | 0.06 | 0.00 | 94 | 1039.1 |
| 20260901065007 | 68 | 182 | 0.0 | 0.0 | 0.00 | 0.06 | 0.00 | 94 | 1039.3 |
| 20260901064505 | 68 | 182 | 0.0 | 0.0 | 0.00 | 0.06 | 0.00 | 94 | 1039.5 |
| 20260901064005 | 68 | 182 | 0.0 | 0.0 | 0.00 | 0.06 | 0.00 | 94 | 1039.4 |
| 20260901063504 | 68 | 182 | 0.0 | 0.0 | 0.00 | 0.06 | 0.00 | 94 | 1039.3 |
| 20260901063004 | 68 | 182 | 0.0 | 0.0 | 0.00 | 0.06 | 0.00 | 94 | 1039.5 |
| 20260901062504 | 68 | 182 | 0.0 | 0.0 | 0.00 | 0.06 | 0.00 | 94 | 1039.5 |
| 20260901062006 | 68 | 182 | 0.0 | 0.0 | 0.00 | 0.06 | 0.00 | 95 | 1039.4 |
| 20260901061609 | 68 | 182 | 0.0 | 0.0 | 0.00 | 0.06 | 0.00 | 95 | 1039.5 |
| 20260901061004 | 67 | 182 | 0.0 | 0.0 | 0.00 | 0.06 | 0.00 | 94 | 1039.5 |
| 20260901060502 | 67 | 182 | 0.0 | 0.0 | 0.00 | 0.06 | 0.00 | 94 | 1039.5 |
| 20260901060002 | 67 | 182 | 0.0 | 0.0 | 0.00 | 0.06 | 0.00 | 94 | 1039.5 |
| 20260901055501 | 67 | 182 | 0.0 | 0.0 | 0.00 | 0.06 | 0.00 | 94 | 1039.7 |
| 20260901055100 | 67 | 182 | 0.0 | 0.0 | 0.00 | 0.06 | 0.00 | 94 | 1039.8 |
| 20260901054607 | 67 | 182 | 0.0 | 0.0 | 0.00 | 0.06 | 0.00 | 94 | 1039.8 |
| 20260901054100 | 67 | 182 | 0.0 | 0.0 | 0.00 | 0.06 | 0.00 | 94 | 1039.9 |
| 20260901053600 | 68 | 182 | 0.0 | 0.0 | 0.00 | 0.06 | 0.00 | 94 | 1039.8 |
| 20260901053114 | 68 | 182 | 0.0 | 0.0 | 0.00 | 0.06 | 0.00 | 94 | 1039.9 |
| 20260901052557 | 68 | 182 | 0.0 | 0.0 | 0.00 | 0.06 | 0.00 | 94 | 1039.7 |
| 20260901052057 | 68 | 182 | 0.0 | 0.0 | 0.00 | 0.06 | 0.00 | 94 | 1039.9 |
| 20260901051603 | 68 | 182 | 0.0 | 0.0 | 0.00 | 0.06 | 0.00 | 94 | 1039.9 |
| 20260901051056 | 68 | 182 | 0.0 | 0.0 | 0.00 | 0.06 | 0.00 | 94 | 1039.9 |
| 20260901050559 | 68 | 182 | 0.0 | 0.0 | 0.00 | 0.06 | 0.00 | 94 | 1039.8 |
| 20260901050100 | 68 | 182 | 0.0 | 0.0 | 0.00 | 0.06 | 0.00 | 94 | 1039.7 |
| 20260901045555 | 68 | 182 | 0.0 | 0.0 | 0.00 | 0.06 | 0.00 | 94 | 1039.8 |
| 20260901045055 | 68 | 182 | 0.0 | 0.0 | 0.00 | 0.06 | 0.00 | 94 | 1039.9 |
| 20260901044616 | 68 | 182 | 0.0 | 0.0 | 0.00 | 0.06 | 0.00 | 94 | 1039.9 |
| 20260901044055 | 68 | 182 | 0.0 | 0.0 | 0.00 | 0.06 | 0.00 | 94 | 1040.1 |
| 20260901043553 | 68 | 182 | 0.0 | 0.0 | 0.00 | 0.06 | 0.00 | 94 | 1040.1 |
| 20260901043053 | 68 | 182 | 0.0 | 0.0 | 0.00 | 0.06 | 0.00 | 94 | 1040.1 |
| 20260901042551 | 68 | 182 | 0.0 | 0.0 | 0.00 | 0.06 | 0.00 | 94 | 1040.1 |